Time;durP1;ratioP1;P1;durP2;ratioP2;P2;SDS_P1;SDS_P2;PMS_P1;PMS_P2;Temp;Humidity;BMP_temperature;BMP_pressure;BME280_temperature;BME280_humidity;BME280_pressure;Samples;Min_cycle;Max_cycle;Signal;HPM_P1;HPM_P2
2023/05/27 00:00:32;;;;;;;15.32;4.82;;;;;;;16.75;46.56;101425.69;4093892;28;20054;-66
2023/05/27 00:02:36;;;;;;;13.98;4.53;;;;;;;16.76;46.19;101421.31;4111916;28;20058;-67
2023/05/27 00:04:39;;;;;;;17.80;5.05;;;;;;;16.65;46.63;101434.41;4095169;29;20139;-66
2023/05/27 00:06:42;;;;;;;16.65;5.50;;;;;;;16.70;46.66;101429.16;4111659;28;20043;-66
2023/05/27 00:08:44;;;;;;;18.23;5.45;;;;;;;16.65;46.38;101429.13;4093340;29;20035;-66
2023/05/27 00:10:48;;;;;;;13.05;4.63;;;;;;;16.60;46.47;101425.59;4109078;28;20042;-66
2023/05/27 00:12:51;;;;;;;14.32;4.78;;;;;;;16.61;46.59;101421.25;4111132;28;20039;-66
2023/05/27 00:14:54;;;;;;;16.75;5.13;;;;;;;16.57;46.64;101430.84;4115039;28;20070;-66
2023/05/27 00:16:59;;;;;;;14.20;4.32;;;;;;;16.53;46.50;101429.09;4098784;29;20082;-66
2023/05/27 00:19:02;;;;;;;12.25;4.03;;;;;;;16.42;46.84;101422.91;4096979;29;20146;-66
2023/05/27 00:21:05;;;;;;;12.32;4.53;;;;;;;16.37;46.74;101428.13;4112152;28;20623;-66
2023/05/27 00:23:09;;;;;;;12.50;3.95;;;;;;;16.34;47.26;101426.34;4113963;28;20046;-66
2023/05/27 00:25:12;;;;;;;13.98;4.65;;;;;;;16.34;46.56;101418.47;4094938;29;20135;-67
2023/05/27 00:27:15;;;;;;;17.60;4.93;;;;;;;16.25;46.77;101423.66;4098712;29;20058;-66
2023/05/27 00:29:18;;;;;;;16.02;5.13;;;;;;;16.25;46.60;101422.78;4094780;29;20039;-66
2023/05/27 00:31:21;;;;;;;14.63;5.50;;;;;;;16.18;46.79;101427.13;4108850;28;20322;-66
2023/05/27 00:33:25;;;;;;;13.50;4.28;;;;;;;16.15;47.12;101421.84;4080928;29;20044;-66
2023/05/27 00:35:29;;;;;;;11.85;4.70;;;;;;;16.09;47.08;101422.72;4097649;29;20042;-66
2023/05/27 00:37:32;;;;;;;13.75;4.57;;;;;;;16.10;46.98;101426.19;4110386;28;20035;-66
2023/05/27 00:39:35;;;;;;;12.30;4.57;;;;;;;16.12;46.81;101416.59;4080949;29;20044;-66
2023/05/27 00:41:39;;;;;;;13.68;4.35;;;;;;;16.11;47.36;101426.22;4096737;29;20408;-66
2023/05/27 00:43:42;;;;;;;16.25;4.72;;;;;;;16.04;46.81;101421.78;4097924;29;20070;-66
2023/05/27 00:45:44;;;;;;;12.98;4.40;;;;;;;16.03;47.73;101423.53;4097476;29;20082;-66
2023/05/27 00:47:48;;;;;;;17.55;5.10;;;;;;;16.02;47.44;101411.28;4093065;29;20104;-66
2023/05/27 00:49:53;;;;;;;14.85;4.85;;;;;;;15.96;47.80;101428.72;4096930;29;20035;-66
2023/05/27 00:51:56;;;;;;;10.70;4.40;;;;;;;15.94;47.31;101430.44;4110325;28;20046;-66
2023/05/27 00:53:59;;;;;;;14.25;4.57;;;;;;;15.87;47.75;101426.88;4098105;29;20087;-66
2023/05/27 00:56:03;;;;;;;14.57;5.05;;;;;;;15.86;47.63;101431.28;4098082;29;20414;-66
2023/05/27 00:58:08;;;;;;;16.95;5.20;;;;;;;15.91;47.43;101433.06;4095284;29;20222;-66
2023/05/27 01:00:13;;;;;;;16.95;4.63;;;;;;;15.84;47.58;101438.25;4114765;28;20491;-66
2023/05/27 01:02:16;;;;;;;12.73;4.15;;;;;;;15.79;47.81;101433.84;4094411;29;20521;-66
2023/05/27 01:04:20;;;;;;;17.15;5.50;;;;;;;15.80;47.72;101425.09;4095277;29;20130;-66
2023/05/27 01:06:36;;;;;;;17.17;5.60;;;;;;;15.84;47.07;101424.25;4111475;28;20082;-66
2023/05/27 01:08:52;;;;;;;13.35;4.55;;;;;;;15.77;47.23;101422.41;4110215;28;20039;-66
2023/05/27 01:10:56;;;;;;;17.95;4.97;;;;;;;15.79;47.57;101425.97;4098164;29;20043;-66
2023/05/27 01:13:02;;;;;;;15.95;4.72;;;;;;;15.68;48.10;101420.59;4097532;29;20035;-67
2023/05/27 01:15:07;;;;;;;13.73;4.50;;;;;;;15.62;47.77;101421.41;4111834;28;20519;-66
2023/05/27 01:17:11;;;;;;;12.30;3.90;;;;;;;15.58;48.11;101424.00;4110401;28;20473;-67
2023/05/27 01:19:18;;;;;;;16.02;4.60;;;;;;;15.53;48.00;101414.34;4110417;28;20117;-66
2023/05/27 01:21:24;;;;;;;21.98;5.40;;;;;;;15.53;47.97;101416.97;4113352;28;20303;-66
2023/05/27 01:23:28;;;;;;;16.23;5.03;;;;;;;15.52;47.72;101411.69;4112161;28;20402;-66
2023/05/27 01:25:31;;;;;;;;;;;;;;;15.52;48.48;101420.47;4080616;29;20047;-66
2023/05/27 01:27:34;;;;;;;13.50;4.63;;;;;;;15.41;48.46;101414.25;4110928;28;20371;-66
2023/05/27 01:29:37;;;;;;;15.57;4.80;;;;;;;15.48;47.69;101415.19;4112954;28;20480;-66
2023/05/27 01:31:48;;;;;;;16.98;5.72;;;;;;;15.44;48.41;101416.03;4095438;29;20122;-66
2023/05/27 01:33:59;;;;;;;16.00;4.45;;;;;;;15.41;48.23;101413.38;4096886;29;20129;-66
2023/05/27 01:36:07;;;;;;;15.13;4.60;;;;;;;15.34;48.12;101409.81;4108062;28;20482;-66
2023/05/27 01:38:13;;;;;;;15.13;5.15;;;;;;;15.31;48.53;101410.63;4091532;29;20406;-67
2023/05/27 01:40:19;;;;;;;18.05;4.78;;;;;;;15.31;48.67;101408.03;4093422;29;20035;-66
2023/05/27 01:42:22;;;;;;;11.05;4.15;;;;;;;15.36;48.27;101400.19;4108748;28;20078;-66
2023/05/27 01:44:26;;;;;;;20.02;4.72;;;;;;;15.27;48.91;101401.00;4093428;29;20043;-67
2023/05/27 01:46:29;;;;;;;13.77;4.68;;;;;;;15.31;48.85;101408.03;4079579;29;20561;-66
2023/05/27 01:48:32;;;;;;;13.75;4.55;;;;;;;15.38;48.90;101400.25;4110472;28;20085;-67
2023/05/27 01:50:36;;;;;;;19.08;4.78;;;;;;;15.33;49.32;101400.19;4114299;28;20046;-66
2023/05/27 01:52:39;;;;;;;17.85;5.20;;;;;;;15.35;48.37;101401.94;4096564;29;20139;-66
2023/05/27 01:54:42;;;;;;;16.08;4.78;;;;;;;15.27;48.29;101403.59;4094135;29;20098;-66
2023/05/27 01:56:46;;;;;;;14.18;5.28;;;;;;;15.29;48.67;101398.41;4109838;28;20039;-67
2023/05/27 01:58:49;;;;;;;17.15;5.38;;;;;;;15.20;49.29;101401.81;4112738;28;20043;-66
2023/05/27 02:00:52;;;;;;;14.18;4.65;;;;;;;15.12;49.07;101398.22;4094275;28;20047;-67
2023/05/27 02:02:56;;;;;;;17.07;5.20;;;;;;;15.12;49.52;101398.22;4097673;28;20039;-66
2023/05/27 02:04:59;;;;;;;13.73;5.35;;;;;;;15.18;48.87;101398.28;4107334;28;20286;-66
2023/05/27 02:07:03;;;;;;;15.35;4.63;;;;;;;15.17;49.08;101393.91;4112477;28;20118;-66
2023/05/27 02:09:06;;;;;;;14.50;4.68;;;;;;;15.13;50.14;101392.13;4096851;28;20490;-66
2023/05/27 02:11:09;;;;;;;14.23;4.45;;;;;;;15.08;49.76;101393.81;4107963;28;20556;-66
2023/05/27 02:13:13;;;;;;;12.60;4.18;;;;;;;15.01;50.18;101391.13;4071376;29;20519;-66
2023/05/27 02:15:17;;;;;;;15.77;4.47;;;;;;;15.01;49.60;101391.13;4107468;28;20047;-66
2023/05/27 02:17:19;;;;;;;13.38;5.25;;;;;;;14.96;49.88;101390.19;4105273;28;20090;-66
2023/05/27 02:19:24;;;;;;;16.60;4.28;;;;;;;14.93;49.58;101395.41;4095331;28;20035;-66
2023/05/27 02:21:46;;;;;;;12.60;4.63;;;;;;;14.82;50.20;101394.38;4108563;28;20049;-66
2023/05/27 02:24:08;;;;;;;14.93;4.93;;;;;;;14.88;49.74;101397.09;4098426;28;20164;-66
2023/05/27 02:26:30;;;;;;;18.20;5.93;;;;;;;14.88;50.29;101394.50;4098643;28;20134;-66
2023/05/27 02:28:55;;;;;;;16.40;4.90;;;;;;;14.86;50.15;101395.31;4099287;28;20043;-66
2023/05/27 02:31:17;;;;;;;16.70;5.18;;;;;;;14.82;50.20;101391.78;4110071;28;20409;-66
2023/05/27 02:33:38;;;;;;;10.95;3.78;;;;;;;14.77;50.21;101389.09;4092270;28;20133;-66
2023/05/27 02:36:00;;;;;;;16.20;4.45;;;;;;;14.74;50.76;101390.81;4098165;28;20062;-66
2023/05/27 02:38:22;;;;;;;15.30;4.60;;;;;;;14.73;50.33;101381.22;4095572;28;20532;-66
2023/05/27 02:40:44;;;;;;;16.58;5.35;;;;;;;14.76;50.52;101383.84;4111110;28;20078;-66
2023/05/27 02:43:06;;;;;;;15.25;4.85;;;;;;;14.69;50.96;101379.41;4093249;28;20560;-66
2023/05/27 02:45:29;;;;;;;15.82;5.35;;;;;;;14.68;50.78;101380.28;4110961;28;20054;-66
2023/05/27 02:47:51;;;;;;;11.52;4.38;;;;;;;14.65;51.03;101370.66;4096604;28;20050;-66
2023/05/27 02:50:12;;;;;;;16.33;4.70;;;;;;;14.61;50.99;101379.28;4096297;28;20061;-67
2023/05/27 02:52:34;;;;;;;12.55;4.20;;;;;;;14.61;50.93;101380.19;4112213;28;20078;-66
2023/05/27 02:54:56;;;;;;;14.38;5.03;;;;;;;14.58;51.21;101380.13;4099549;28;20049;-67
2023/05/27 02:57:18;;;;;;;18.23;5.13;;;;;;;14.48;51.74;101381.75;4096582;28;20083;-67
2023/05/27 02:59:40;;;;;;;16.17;5.05;;;;;;;14.49;50.93;101380.00;4098174;28;20420;-66
2023/05/27 03:02:03;;;;;;;13.57;5.10;;;;;;;14.45;51.63;101368.63;4099485;28;20145;-66
2023/05/27 03:04:28;;;;;;;13.38;4.00;;;;;;;14.43;51.08;101374.72;4095596;28;20074;-67
2023/05/27 03:06:49;;;;;;;23.17;5.85;;;;;;;14.47;51.36;101376.47;4097888;28;20584;-66
2023/05/27 03:09:11;;;;;;;13.98;5.03;;;;;;;14.40;51.25;101372.94;4112964;28;20085;-67
2023/05/27 03:11:33;;;;;;;17.00;5.07;;;;;;;14.43;52.10;101380.81;4097235;28;20046;-66
2023/05/27 03:13:54;;;;;;;13.98;5.07;;;;;;;14.48;51.75;101383.47;4104245;28;20070;-67
2023/05/27 03:16:16;;;;;;;17.55;4.75;;;;;;;14.36;51.81;101384.19;4098192;28;20148;-67
2023/05/27 03:18:39;;;;;;;17.58;4.88;;;;;;;14.40;51.97;101385.13;4094353;28;20068;-66
2023/05/27 03:21:01;;;;;;;16.27;4.82;;;;;;;14.34;51.65;101377.19;4111776;28;20042;-67
2023/05/27 03:23:22;;;;;;;13.20;4.50;;;;;;;14.26;52.23;101377.97;4110559;28;20143;-67
2023/05/27 03:25:44;;;;;;;18.75;5.55;;;;;;;14.23;52.00;101387.50;4095541;28;20090;-66
2023/05/27 03:28:06;;;;;;;14.25;5.20;;;;;;;14.21;52.47;101382.25;4097970;28;20046;-67
2023/05/27 03:30:27;;;;;;;14.43;3.63;;;;;;;14.25;51.85;101380.56;4099292;28;20050;-66
2023/05/27 03:32:50;;;;;;;15.00;5.07;;;;;;;14.13;52.73;101376.94;4097053;28;20123;-67
2023/05/27 03:35:19;;;;;;;12.05;4.50;;;;;;;14.14;52.01;101385.66;4095993;28;20127;-67
2023/05/27 03:37:41;;;;;;;16.17;4.78;;;;;;;14.13;52.15;101383.88;4098476;28;20460;-66
2023/05/27 03:40:03;;;;;;;17.52;4.50;;;;;;;14.10;52.31;101382.09;4094624;28;20109;-66
2023/05/27 03:42:25;;;;;;;12.57;4.00;;;;;;;14.12;52.18;101379.53;4097377;28;20651;-66
2023/05/27 03:44:47;;;;;;;15.90;4.95;;;;;;;14.04;52.36;101374.16;4097848;28;20106;-67
2023/05/27 03:47:09;;;;;;;13.18;4.80;;;;;;;14.03;52.61;101371.53;4095680;28;20055;-67
2023/05/27 03:49:30;;;;;;;11.45;4.72;;;;;;;13.96;52.68;101379.28;4100211;28;20134;-66
2023/05/27 03:51:54;;;;;;;18.27;5.10;;;;;;;13.95;52.87;101379.25;4097342;28;20054;-67
2023/05/27 03:54:16;;;;;;;16.73;4.93;;;;;;;13.93;52.89;101381.84;4098534;28;20516;-67
2023/05/27 03:56:37;;;;;;;13.07;4.18;;;;;;;13.98;52.52;101391.50;4100748;28;20050;-67
2023/05/27 03:58:59;;;;;;;15.82;4.35;;;;;;;13.97;52.90;101382.78;4101559;28;20061;-67
2023/05/27 04:01:22;;;;;;;18.60;5.25;;;;;;;14.03;53.08;101388.13;4111908;28;20095;-66
2023/05/27 04:03:44;;;;;;;24.75;6.20;;;;;;;14.06;52.81;101388.16;4113440;28;20069;-66
2023/05/27 04:06:07;;;;;;;17.33;4.97;;;;;;;13.97;52.84;101388.00;4099268;28;20062;-66
2023/05/27 04:08:30;;;;;;;16.75;5.40;;;;;;;13.99;52.45;101390.63;4113933;28;20082;-66
2023/05/27 04:10:51;;;;;;;15.05;4.60;;;;;;;13.96;53.01;101389.75;4100783;28;20050;-67
2023/05/27 04:13:13;;;;;;;14.10;4.65;;;;;;;13.98;52.72;101389.75;4100949;28;20103;-67
2023/05/27 04:15:35;;;;;;;19.65;4.78;;;;;;;13.92;53.27;101382.72;4099508;28;20051;-67
2023/05/27 04:17:56;;;;;;;19.15;5.68;;;;;;;13.96;52.90;101388.88;4100885;28;20054;-66
2023/05/27 04:20:18;;;;;;;16.58;5.30;;;;;;;13.95;53.36;101381.88;4098817;28;20110;-66
2023/05/27 04:22:45;;;;;;;19.20;5.20;;;;;;;13.95;53.36;101392.34;4100275;28;20054;-66
2023/05/27 04:25:08;;;;;;;13.18;4.88;;;;;;;13.99;53.24;101386.31;4107564;28;20165;-66
2023/05/27 04:27:40;;;;;;;17.65;4.75;;;;;;;14.04;53.75;101384.63;4101370;28;20473;-65
2023/05/27 04:30:02;;;;;;;13.95;4.50;;;;;;;14.11;53.09;101383.84;4093947;28;20063;-65
2023/05/27 04:32:27;;;;;;;13.45;4.82;;;;;;;14.19;52.35;101388.31;4099595;28;20054;-66
2023/05/27 04:34:49;;;;;;;15.63;5.13;;;;;;;14.16;52.78;101390.91;4100575;28;20581;-66
2023/05/27 04:37:10;;;;;;;13.88;4.65;;;;;;;14.19;53.04;101385.72;4098805;28;20061;-66
2023/05/27 04:39:32;;;;;;;14.65;5.22;;;;;;;14.14;52.98;101378.66;4100912;28;20089;-66
2023/05/27 04:41:56;;;;;;;16.38;5.15;;;;;;;14.24;53.03;101379.69;4113247;28;20179;-66
2023/05/27 04:44:21;;;;;;;15.70;5.85;;;;;;;14.28;52.85;101380.59;4108053;28;20131;-66
2023/05/27 04:46:44;;;;;;;14.68;4.95;;;;;;;14.35;52.47;101386.78;4101325;28;20086;-66
2023/05/27 04:49:06;;;;;;;17.55;4.53;;;;;;;14.21;53.09;101390.09;4095491;28;20083;-66
2023/05/27 04:51:27;;;;;;;12.23;4.90;;;;;;;14.30;52.60;101390.22;4100716;28;20131;-66
2023/05/27 04:53:50;;;;;;;15.30;4.32;;;;;;;14.24;52.88;101384.91;4099238;28;20050;-66
2023/05/27 04:56:14;;;;;;;17.58;4.85;;;;;;;14.30;52.19;101384.13;4112998;28;20062;-66
2023/05/27 04:58:39;;;;;;;15.43;4.72;;;;;;;14.34;52.65;101391.16;4098041;28;20050;-66
2023/05/27 05:01:01;;;;;;;13.90;4.57;;;;;;;14.30;53.20;101385.00;4098961;28;20115;-66
2023/05/27 05:03:36;;;;;;;16.10;4.78;;;;;;;14.36;52.33;101383.34;4099744;28;20110;-66
2023/05/27 05:05:58;;;;;;;16.17;5.65;;;;;;;14.39;52.85;101380.75;4099522;28;20078;-66
2023/05/27 05:08:20;;;;;;;18.67;5.88;;;;;;;14.39;52.75;101386.00;4100196;28;20460;-66
2023/05/27 05:10:43;;;;;;;18.48;5.45;;;;;;;14.43;52.60;101386.03;4095200;28;20442;-66
2023/05/27 05:13:05;;;;;;;11.80;3.80;;;;;;;14.42;52.00;101389.50;4099019;28;20071;-66
2023/05/27 05:15:28;;;;;;;13.60;4.00;;;;;;;14.43;53.18;101390.41;4097797;28;20569;-66
2023/05/27 05:17:50;;;;;;;14.35;4.80;;;;;;;14.57;52.03;101387.94;4113844;28;20068;-66
2023/05/27 05:20:13;;;;;;;15.73;5.00;;;;;;;14.67;51.96;101384.63;4096183;28;20098;-66
2023/05/27 05:22:35;;;;;;;13.10;5.22;;;;;;;14.73;51.29;101394.28;4112587;28;20444;-65
2023/05/27 05:24:56;;;;;;;16.77;4.20;;;;;;;14.68;52.09;101386.38;4109493;28;20062;-66
2023/05/27 05:27:26;;;;;;;17.65;4.57;;;;;;;14.73;51.79;101384.69;4098677;28;20061;-66
2023/05/27 05:29:48;;;;;;;16.00;4.68;;;;;;;14.81;51.57;101385.66;4098235;28;20082;-66
2023/05/27 05:32:11;;;;;;;16.17;5.03;;;;;;;14.89;51.23;101385.75;4099051;28;20543;-66
2023/05/27 05:34:33;;;;;;;11.55;4.55;;;;;;;14.90;51.85;101384.91;4112077;28;20053;-66
2023/05/27 05:36:55;;;;;;;11.15;3.80;;;;;;;14.93;51.56;101389.28;4100288;28;20126;-66
2023/05/27 05:39:17;;;;;;;18.23;6.15;;;;;;;14.97;51.22;101391.97;4100046;28;20051;-66
2023/05/27 05:41:42;;;;;;;18.52;4.40;;;;;;;15.05;51.04;101391.16;4100380;28;20493;-66
2023/05/27 05:44:04;;;;;;;15.63;4.78;;;;;;;15.07;51.25;101384.19;4096907;28;20195;-66
2023/05/27 05:46:26;;;;;;;15.60;4.95;;;;;;;15.14;51.14;101393.88;4098662;28;20054;-66
2023/05/27 05:48:50;;;;;;;15.75;5.05;;;;;;;15.25;50.67;101399.25;4100302;28;20596;-66
2023/05/27 05:51:16;;;;;;;13.63;4.25;;;;;;;15.21;50.08;101386.97;4098353;28;20054;-66
2023/05/27 05:53:41;;;;;;;15.50;4.32;;;;;;;15.25;50.97;101394.00;4098752;28;20154;-66
2023/05/27 05:56:03;;;;;;;17.63;4.15;;;;;;;15.24;49.73;101395.72;4108641;28;20050;-66
2023/05/27 05:58:24;;;;;;;17.92;5.78;;;;;;;15.34;50.63;101387.09;4111846;28;20425;-66
2023/05/27 06:00:46;;;;;;;13.40;4.57;;;;;;;15.35;50.13;101388.00;4111054;28;20041;-66
2023/05/27 06:03:37;;;;;;;17.30;5.55;;;;;;;15.34;50.25;101394.94;4112718;28;20058;-66
2023/05/27 06:06:03;;;;;;;16.15;5.00;;;;;;;15.29;50.33;101396.66;4095682;28;20123;-66
2023/05/27 06:08:27;;;;;;;;;;;;;;;15.31;50.79;101397.53;4100648;28;20121;-66
2023/05/27 06:10:59;;;;;;;18.63;5.70;;;;;;;15.47;49.02;101388.09;4098505;28;20400;-66
2023/05/27 06:13:21;;;;;;;15.35;5.32;;;;;;;15.49;50.11;101398.56;4098770;28;20082;-66
2023/05/27 06:15:45;;;;;;;23.05;5.57;;;;;;;15.52;49.38;101393.34;4099587;28;20139;-66
2023/05/27 06:18:07;;;;;;;18.05;5.13;;;;;;;15.60;49.15;101388.22;4094069;28;20050;-66
2023/05/27 06:20:29;;;;;;;16.73;4.95;;;;;;;15.66;48.92;101399.59;4109981;28;20107;-66
2023/05/27 06:22:51;;;;;;;11.80;4.93;;;;;;;15.64;49.15;101396.09;4097328;28;20584;-66
2023/05/27 06:25:31;;;;;;;16.33;4.93;;;;;;;15.65;50.52;101397.88;4110860;28;20560;-66
2023/05/27 06:27:58;;;;;;;15.73;4.78;;;;;;;15.80;49.90;101393.63;4097110;28;20099;-66
2023/05/27 06:30:19;;;;;;;15.52;4.45;;;;;;;15.82;49.38;101392.78;4109808;28;20101;-66
2023/05/27 06:32:42;;;;;;;14.57;4.85;;;;;;;15.90;48.81;101391.94;4097624;28;20065;-65
2023/05/27 06:35:04;;;;;;;16.83;5.55;;;;;;;16.05;49.49;101387.69;4100664;28;20099;-67
2023/05/27 06:37:26;;;;;;;14.02;4.80;;;;;;;16.18;48.77;101387.78;4101528;28;20551;-66
2023/05/27 06:39:48;;;;;;;16.58;4.68;;;;;;;16.19;48.77;101382.53;4095914;28;20091;-66
2023/05/27 06:42:10;;;;;;;14.23;4.63;;;;;;;16.36;48.81;101381.75;4099303;28;20050;-67
2023/05/27 06:44:45;;;;;;;15.00;4.57;;;;;;;16.52;47.88;101382.72;4099027;28;20061;-67
2023/05/27 06:47:12;;;;;;;10.15;3.78;;;;;;;16.53;47.67;101381.84;4110801;28;20082;-67
2023/05/27 06:49:35;;;;;;;13.07;4.40;;;;;;;16.59;48.59;101379.25;4099805;28;20680;-67
2023/05/27 06:51:58;;;;;;;11.93;4.10;;;;;;;16.90;46.95;101382.00;4108222;28;20049;-66
2023/05/27 06:54:22;;;;;;;18.95;4.45;;;;;;;16.89;47.31;101380.25;4095635;28;20062;-67
2023/05/27 06:56:46;;;;;;;15.18;5.03;;;;;;;17.00;46.00;101383.78;4097067;28;20058;-66
2023/05/27 06:59:27;;;;;;;15.45;4.70;;;;;;;17.04;46.26;101369.78;4110071;28;20173;-65
2023/05/27 07:01:48;;;;;;;16.50;4.10;;;;;;;17.16;46.35;101373.31;4099590;28;20099;-64
2023/05/27 07:04:10;;;;;;;14.85;4.75;;;;;;;17.26;44.80;101375.09;4090529;28;20054;-65
2023/05/27 07:06:45;;;;;;;18.35;4.85;;;;;;;17.29;44.98;101375.09;4109372;28;20530;-65
2023/05/27 07:09:06;;;;;;;14.93;4.72;;;;;;;17.43;44.44;101375.06;4094728;28;20094;-64
2023/05/27 07:11:29;;;;;;;13.95;4.72;;;;;;;17.40;43.50;101370.69;4097504;28;20508;-65
2023/05/27 07:13:57;;;;;;;16.15;4.57;;;;;;;17.43;43.83;101369.81;4097251;28;20137;-65
2023/05/27 07:16:21;;;;;;;15.60;4.35;;;;;;;17.54;44.06;101370.69;4108210;28;20113;-65
2023/05/27 07:19:08;;;;;;;17.63;4.80;;;;;;;17.59;43.46;101362.81;4089120;28;20057;-64
2023/05/27 07:21:38;;;;;;;13.18;4.38;;;;;;;17.64;44.14;101368.97;4097189;28;20513;-64
2023/05/27 07:24:06;;;;;;;13.50;4.75;;;;;;;17.81;43.14;101371.56;4092316;28;20106;-65
2023/05/27 07:26:31;;;;;;;12.32;3.92;;;;;;;17.86;43.40;101368.91;4097389;28;20054;-65
2023/05/27 07:28:52;;;;;;;15.05;4.47;;;;;;;18.00;42.58;101361.91;4097872;28;20094;-65
2023/05/27 07:31:25;;;;;;;14.50;4.97;;;;;;;18.19;42.05;101367.13;4097286;28;20103;-64
2023/05/27 07:33:51;;;;;;;12.15;4.10;;;;;;;18.13;42.63;101366.25;4095549;28;20095;-64
2023/05/27 07:36:14;;;;;;;13.77;4.53;;;;;;;18.25;42.61;101361.84;4096163;28;20098;-65
2023/05/27 07:38:36;;;;;;;13.52;4.15;;;;;;;18.23;42.19;101361.00;4097845;28;20082;-64
2023/05/27 07:40:58;;;;;;;16.67;6.90;;;;;;;18.51;41.70;101358.25;4096037;28;20127;-64
2023/05/27 07:43:19;;;;;;;17.67;4.80;;;;;;;18.51;41.72;101356.50;4097864;28;20050;-65
2023/05/27 07:45:40;;;;;;;11.27;4.30;;;;;;;18.46;42.25;101348.63;4094667;28;20145;-65
2023/05/27 07:48:03;;;;;;;14.20;4.93;;;;;;;18.61;42.71;101349.44;4096939;28;20157;-65
2023/05/27 07:50:26;;;;;;;17.50;4.45;;;;;;;18.69;41.52;101345.00;4098435;28;20069;-65
2023/05/27 07:52:55;;;;;;;13.18;3.92;;;;;;;18.78;42.57;101341.47;4095690;28;20050;-65
2023/05/27 07:55:19;;;;;;;25.58;6.20;;;;;;;19.00;41.90;101335.19;4098242;28;20090;-64
2023/05/27 07:57:43;;;;;;;13.57;5.07;;;;;;;19.02;41.73;101336.03;4099946;28;20138;-65
2023/05/27 08:00:07;;;;;;;15.48;4.90;;;;;;;19.17;41.47;101337.72;4094005;28;20082;-65
2023/05/27 08:02:46;;;;;;;17.58;6.05;;;;;;;19.16;41.74;101330.69;4110186;28;20110;-61
2023/05/27 08:05:11;;;;;;;11.95;4.32;;;;;;;19.27;42.10;101329.72;4111544;28;20097;-62
2023/05/27 08:07:53;;;;;;;10.57;3.80;;;;;;;19.43;40.37;101320.78;4112890;28;20097;-61
2023/05/27 08:10:37;;;;;;;13.07;4.93;;;;;;;19.49;40.39;101323.41;4094314;28;20057;-60
2023/05/27 08:13:17;;;;;;;19.75;4.72;;;;;;;19.63;40.01;101320.63;4108569;28;20045;-61
2023/05/27 08:16:01;;;;;;;11.90;4.20;;;;;;;19.64;40.36;101330.28;4094459;28;20050;-65
2023/05/27 08:18:37;;;;;;;12.20;4.32;;;;;;;19.70;39.52;101330.22;4109563;28;20065;-63
2023/05/27 08:21:10;;;;;;;12.05;3.92;;;;;;;19.74;40.19;101322.28;4097216;28;20150;-65
2023/05/27 08:23:56;;;;;;;11.43;4.10;;;;;;;19.82;38.64;101316.06;4090051;28;20053;-65
2023/05/27 08:26:28;;;;;;;12.45;4.57;;;;;;;19.84;39.52;101311.66;4096366;28;20410;-62
2023/05/27 08:29:02;;;;;;;13.20;3.63;;;;;;;19.94;40.32;101314.19;4096271;28;20123;-62
2023/05/27 08:31:32;;;;;;;12.02;3.97;;;;;;;19.93;40.47;101308.06;4094764;28;20091;-63
2023/05/27 08:33:55;;;;;;;15.85;4.80;;;;;;;20.14;39.40;101313.97;4111506;28;20138;-62
2023/05/27 08:36:19;;;;;;;12.88;4.43;;;;;;;20.23;38.55;101303.28;4099232;28;20106;-64
2023/05/27 08:38:42;;;;;;;7.75;3.50;;;;;;;20.21;38.67;101308.59;4110978;28;20054;-64
2023/05/27 08:41:12;;;;;;;13.73;4.93;;;;;;;20.39;37.57;101302.19;4099033;28;20565;-63
2023/05/27 08:43:34;;;;;;;12.10;3.40;;;;;;;20.25;38.13;101303.28;4100794;28;20095;-62
2023/05/27 08:45:56;;;;;;;10.82;3.45;;;;;;;20.33;38.15;101297.00;4099027;28;20150;-61
2023/05/27 08:48:17;;;;;;;11.27;2.72;;;;;;;20.38;38.43;101292.53;4096245;28;20049;-63
2023/05/27 08:50:40;;;;;;;13.95;5.65;;;;;;;20.71;37.00;101292.13;4093249;28;20607;-63
2023/05/27 08:53:04;;;;;;;13.55;4.75;;;;;;;20.76;37.78;101295.56;4112640;28;20058;-63
2023/05/27 08:55:28;;;;;;;13.25;4.45;;;;;;;20.88;37.13;101290.09;4114386;28;20113;-63
2023/05/27 08:57:52;;;;;;;11.35;3.83;;;;;;;20.90;37.21;101295.38;4103012;28;20083;-63
2023/05/27 09:00:14;;;;;;;15.20;4.93;;;;;;;21.06;36.10;101286.28;4103053;28;20106;-63
2023/05/27 09:02:38;;;;;;;17.17;5.57;;;;;;;20.93;36.83;101287.38;4090864;28;20093;-63
2023/05/27 09:05:00;;;;;;;13.93;4.60;;;;;;;20.91;37.03;101279.47;4102386;28;20081;-63
2023/05/27 09:07:22;;;;;;;15.88;5.32;;;;;;;21.01;36.75;101279.31;4115396;28;20460;-63
2023/05/27 09:09:55;;;;;;;11.50;3.67;;;;;;;21.14;37.05;101286.16;4109305;28;20090;-63
2023/05/27 09:12:23;;;;;;;13.27;4.25;;;;;;;21.27;36.58;101277.13;4115823;28;20041;-63
2023/05/27 09:14:44;;;;;;;12.57;4.18;;;;;;;21.46;36.13;101282.09;4110832;28;20086;-63
2023/05/27 09:17:08;;;;;;;11.18;4.70;;;;;;;21.36;37.02;101277.84;4116013;28;20053;-63
2023/05/27 09:19:31;;;;;;;15.30;4.50;;;;;;;21.51;37.00;101269.69;4099659;28;20484;-64
2023/05/27 09:21:53;;;;;;;13.23;4.85;;;;;;;21.65;36.00;101265.91;4116712;28;20058;-63
2023/05/27 09:24:15;;;;;;;12.13;3.70;;;;;;;21.50;36.12;101264.41;4106785;28;20057;-64
2023/05/27 09:26:38;;;;;;;10.00;3.78;;;;;;;21.45;37.04;101264.50;4095872;28;20106;-63
2023/05/27 09:29:02;;;;;;;13.18;4.63;;;;;;;21.82;36.97;101277.03;4110600;28;20591;-62
2023/05/27 09:31:24;;;;;;;13.07;4.93;;;;;;;22.02;34.55;101266.06;4112799;28;20133;-63
2023/05/27 09:33:46;;;;;;;10.02;4.53;;;;;;;21.75;35.42;101264.84;4100640;28;20627;-63
2023/05/27 09:36:09;;;;;;;11.57;4.18;;;;;;;21.64;35.82;101258.88;4096051;28;20062;-63
2023/05/27 09:38:31;;;;;;;15.70;5.95;;;;;;;21.72;35.84;101264.91;4112368;28;20094;-63
2023/05/27 09:40:52;;;;;;;13.60;4.68;;;;;;;21.74;36.42;101265.72;4112972;28;20053;-63
2023/05/27 09:43:16;;;;;;;17.42;4.93;;;;;;;21.98;36.34;101261.72;4115559;28;20057;-64
2023/05/27 09:45:38;;;;;;;12.13;4.25;;;;;;;22.09;35.94;101259.75;4114230;28;20050;-63
2023/05/27 09:48:02;;;;;;;13.00;3.67;;;;;;;22.21;37.02;101244.47;4115981;28;20049;-64
2023/05/27 09:50:23;;;;;;;11.90;4.30;;;;;;;22.57;35.51;101242.81;4116757;28;20535;-64
2023/05/27 09:52:46;;;;;;;11.38;4.45;;;;;;;22.47;35.64;101246.56;4104503;28;20520;-64
2023/05/27 09:55:26;;;;;;;12.38;3.83;;;;;;;22.57;35.37;101240.16;4111672;28;20465;-64
2023/05/27 09:57:49;;;;;;;10.15;4.40;;;;;;;22.64;34.91;101243.53;4115514;28;20053;-64
2023/05/27 10:00:14;;;;;;;9.02;4.10;;;;;;;22.55;35.62;101235.81;4115618;28;20053;-63
2023/05/27 10:02:37;;;;;;;13.68;4.90;;;;;;;22.59;35.79;101235.72;4107556;28;20141;-63
2023/05/27 10:05:00;;;;;;;16.90;5.82;;;;;;;22.71;34.45;101236.34;4116903;28;20050;-62
2023/05/27 10:07:24;;;;;;;12.40;3.63;;;;;;;22.48;34.90;101232.44;4114210;28;20066;-63
2023/05/27 10:09:55;;;;;;;9.25;4.22;;;;;;;22.57;34.96;101237.50;4114465;28;20404;-65
2023/05/27 10:12:18;;;;;;;16.27;6.30;;;;;;;22.62;34.70;101230.34;4114357;28;20094;-65
2023/05/27 10:14:39;;;;;;;12.20;4.07;;;;;;;22.60;34.79;101225.97;4113103;28;20122;-65
2023/05/27 10:17:02;;;;;;;11.95;3.75;;;;;;;22.48;35.42;101219.19;4109146;28;20146;-66
2023/05/27 10:19:24;;;;;;;13.20;4.68;;;;;;;22.60;35.50;101223.31;4111161;28;20046;-68
2023/05/27 10:21:46;;;;;;;11.13;3.75;;;;;;;22.64;35.36;101217.91;4110577;28;20125;-68
2023/05/27 10:24:11;;;;;;;12.98;4.18;;;;;;;22.84;36.06;101211.25;4112371;28;20072;-68
2023/05/27 10:26:34;;;;;;;9.25;4.13;;;;;;;22.89;34.23;101211.13;4110669;28;20465;-68
2023/05/27 10:29:07;;;;;;;17.17;4.82;;;;;;;23.01;34.03;101211.72;4113261;28;20049;-68
2023/05/27 10:31:30;;;;;;;9.93;3.90;;;;;;;22.79;34.57;101205.19;4111282;28;20126;-68
2023/05/27 10:33:54;;;;;;;14.18;4.50;;;;;;;22.88;35.26;101207.63;4097917;28;20150;-68
2023/05/27 10:36:17;;;;;;;10.88;4.55;;;;;;;22.89;35.49;101200.53;4112217;28;20089;-68
2023/05/27 10:38:40;;;;;;;8.05;3.78;;;;;;;22.98;35.67;101205.59;4111031;28;20053;-68
2023/05/27 10:41:03;;;;;;;14.20;4.65;;;;;;;23.27;34.73;101204.84;4112838;28;20061;-68